sensor_id;sensor_type;location;lat;lon;timestamp;P1;durP1;ratioP1;P2;durP2;ratioP2
4553;SDS011;2289;48.316;15.174;2022-10-15T00:01:49;3.50;;;3.00;;
4553;SDS011;2289;48.316;15.174;2022-10-15T00:04:18;3.10;;;2.80;;
4553;SDS011;2289;48.316;15.174;2022-10-15T00:06:47;7.63;;;3.77;;
4553;SDS011;2289;48.316;15.174;2022-10-15T00:09:17;6.10;;;3.00;;
4553;SDS011;2289;48.316;15.174;2022-10-15T00:11:47;7.70;;;3.10;;
4553;SDS011;2289;48.316;15.174;2022-10-15T00:14:17;4.10;;;3.20;;
4553;SDS011;2289;48.316;15.174;2022-10-15T00:16:47;3.07;;;2.73;;
4553;SDS011;2289;48.316;15.174;2022-10-15T00:19:16;6.20;;;3.90;;
4553;SDS011;2289;48.316;15.174;2022-10-15T00:21:45;4.57;;;4.07;;
4553;SDS011;2289;48.316;15.174;2022-10-15T00:24:14;7.17;;;3.13;;
4553;SDS011;2289;48.316;15.174;2022-10-15T00:26:44;4.90;;;3.60;;
4553;SDS011;2289;48.316;15.174;2022-10-15T00:29:13;3.57;;;3.27;;
4553;SDS011;2289;48.316;15.174;2022-10-15T00:31:41;3.67;;;3.20;;
4553;SDS011;2289;48.316;15.174;2022-10-15T00:34:13;5.83;;;4.00;;
4553;SDS011;2289;48.316;15.174;2022-10-15T00:36:42;3.80;;;3.20;;
4553;SDS011;2289;48.316;15.174;2022-10-15T00:39:11;6.70;;;3.13;;
4553;SDS011;2289;48.316;15.174;2022-10-15T00:41:41;3.90;;;2.93;;
4553;SDS011;2289;48.316;15.174;2022-10-15T00:47:28;5.57;;;3.90;;
4553;SDS011;2289;48.316;15.174;2022-10-15T00:50:02;4.10;;;3.40;;
4553;SDS011;2289;48.316;15.174;2022-10-15T00:52:35;4.37;;;3.30;;
4553;SDS011;2289;48.316;15.174;2022-10-15T00:55:09;6.57;;;3.13;;
4553;SDS011;2289;48.316;15.174;2022-10-15T00:57:39;6.90;;;3.50;;
4553;SDS011;2289;48.316;15.174;2022-10-15T01:00:09;3.37;;;3.07;;
4553;SDS011;2289;48.316;15.174;2022-10-15T01:02:40;3.10;;;2.80;;
4553;SDS011;2289;48.316;15.174;2022-10-15T01:05:12;5.00;;;3.43;;
4553;SDS011;2289;48.316;15.174;2022-10-15T01:07:41;3.50;;;3.17;;
4553;SDS011;2289;48.316;15.174;2022-10-15T01:10:11;4.07;;;3.03;;
4553;SDS011;2289;48.316;15.174;2022-10-15T01:12:44;9.30;;;4.23;;
4553;SDS011;2289;48.316;15.174;2022-10-15T01:15:24;5.40;;;3.90;;
4553;SDS011;2289;48.316;15.174;2022-10-15T01:17:56;3.80;;;2.67;;
4553;SDS011;2289;48.316;15.174;2022-10-15T01:29:49;5.20;;;4.10;;
4553;SDS011;2289;48.316;15.174;2022-10-15T01:32:27;8.40;;;3.00;;
4553;SDS011;2289;48.316;15.174;2022-10-15T01:35:00;5.03;;;2.77;;
4553;SDS011;2289;48.316;15.174;2022-10-15T01:37:36;4.33;;;3.27;;
4553;SDS011;2289;48.316;15.174;2022-10-15T01:40:08;4.30;;;2.37;;
4553;SDS011;2289;48.316;15.174;2022-10-15T01:42:42;4.50;;;2.80;;
4553;SDS011;2289;48.316;15.174;2022-10-15T01:45:13;3.43;;;2.70;;
4553;SDS011;2289;48.316;15.174;2022-10-15T01:47:47;4.00;;;2.73;;
4553;SDS011;2289;48.316;15.174;2022-10-15T01:50:18;6.83;;;2.43;;
4553;SDS011;2289;48.316;15.174;2022-10-15T01:52:50;6.03;;;2.90;;
4553;SDS011;2289;48.316;15.174;2022-10-15T01:55:21;7.63;;;2.23;;
4553;SDS011;2289;48.316;15.174;2022-10-15T01:57:52;3.10;;;2.50;;
4553;SDS011;2289;48.316;15.174;2022-10-15T02:00:24;3.00;;;2.60;;
4553;SDS011;2289;48.316;15.174;2022-10-15T02:02:59;4.47;;;2.87;;
4553;SDS011;2289;48.316;15.174;2022-10-15T02:05:29;3.47;;;2.60;;
4553;SDS011;2289;48.316;15.174;2022-10-15T02:08:02;3.77;;;2.83;;
4553;SDS011;2289;48.316;15.174;2022-10-15T02:10:40;3.23;;;2.57;;
4553;SDS011;2289;48.316;15.174;2022-10-15T02:13:12;4.80;;;2.40;;
4553;SDS011;2289;48.316;15.174;2022-10-15T02:15:44;2.87;;;2.50;;
4553;SDS011;2289;48.316;15.174;2022-10-15T02:18:20;3.60;;;2.53;;
4553;SDS011;2289;48.316;15.174;2022-10-15T02:20:56;3.73;;;2.43;;
4553;SDS011;2289;48.316;15.174;2022-10-15T02:23:30;5.23;;;3.83;;
4553;SDS011;2289;48.316;15.174;2022-10-15T02:26:03;2.43;;;2.23;;
4553;SDS011;2289;48.316;15.174;2022-10-15T02:28:35;6.70;;;2.97;;
4553;SDS011;2289;48.316;15.174;2022-10-15T02:31:04;2.77;;;2.57;;
4553;SDS011;2289;48.316;15.174;2022-10-15T02:33:37;3.30;;;2.73;;
4553;SDS011;2289;48.316;15.174;2022-10-15T02:36:06;9.50;;;2.80;;
4553;SDS011;2289;48.316;15.174;2022-10-15T02:38:37;5.53;;;2.87;;
4553;SDS011;2289;48.316;15.174;2022-10-15T02:41:07;2.90;;;2.50;;
4553;SDS011;2289;48.316;15.174;2022-10-15T02:43:38;8.17;;;3.80;;
4553;SDS011;2289;48.316;15.174;2022-10-15T02:46:09;4.63;;;3.13;;
4553;SDS011;2289;48.316;15.174;2022-10-15T02:48:43;4.17;;;3.17;;
4553;SDS011;2289;48.316;15.174;2022-10-15T02:51:12;3.50;;;3.20;;
4553;SDS011;2289;48.316;15.174;2022-10-15T02:53:40;3.50;;;3.20;;
4553;SDS011;2289;48.316;15.174;2022-10-15T02:56:09;5.50;;;3.47;;
4553;SDS011;2289;48.316;15.174;2022-10-15T02:58:39;4.50;;;4.10;;
4553;SDS011;2289;48.316;15.174;2022-10-15T03:01:09;4.30;;;3.60;;
4553;SDS011;2289;48.316;15.174;2022-10-15T03:03:39;9.17;;;4.20;;
4553;SDS011;2289;48.316;15.174;2022-10-15T03:06:11;7.20;;;4.60;;
4553;SDS011;2289;48.316;15.174;2022-10-15T03:08:40;4.53;;;3.90;;
4553;SDS011;2289;48.316;15.174;2022-10-15T03:11:09;5.80;;;4.77;;
4553;SDS011;2289;48.316;15.174;2022-10-15T03:13:38;4.53;;;3.53;;
4553;SDS011;2289;48.316;15.174;2022-10-15T03:16:08;5.90;;;4.37;;
4553;SDS011;2289;48.316;15.174;2022-10-15T03:18:37;4.87;;;4.07;;
4553;SDS011;2289;48.316;15.174;2022-10-15T03:21:07;3.73;;;3.33;;
4553;SDS011;2289;48.316;15.174;2022-10-15T03:23:37;7.63;;;5.53;;
4553;SDS011;2289;48.316;15.174;2022-10-15T03:26:07;8.60;;;5.50;;
4553;SDS011;2289;48.316;15.174;2022-10-15T03:28:36;9.80;;;6.00;;
4553;SDS011;2289;48.316;15.174;2022-10-15T03:31:05;13.43;;;6.13;;
4553;SDS011;2289;48.316;15.174;2022-10-15T03:33:35;6.53;;;5.03;;
4553;SDS011;2289;48.316;15.174;2022-10-15T03:36:04;5.90;;;5.23;;
4553;SDS011;2289;48.316;15.174;2022-10-15T03:38:33;6.67;;;5.50;;
4553;SDS011;2289;48.316;15.174;2022-10-15T03:41:03;9.03;;;6.60;;
4553;SDS011;2289;48.316;15.174;2022-10-15T03:43:32;8.80;;;6.47;;
4553;SDS011;2289;48.316;15.174;2022-10-15T03:46:05;8.20;;;6.40;;
4553;SDS011;2289;48.316;15.174;2022-10-15T03:48:35;9.27;;;7.20;;
4553;SDS011;2289;48.316;15.174;2022-10-15T03:51:05;6.73;;;5.50;;
4553;SDS011;2289;48.316;15.174;2022-10-15T03:53:35;11.30;;;7.20;;
4553;SDS011;2289;48.316;15.174;2022-10-15T03:56:05;9.47;;;8.47;;
4553;SDS011;2289;48.316;15.174;2022-10-15T03:58:35;11.87;;;6.90;;
4553;SDS011;2289;48.316;15.174;2022-10-15T04:01:07;9.60;;;7.10;;
4553;SDS011;2289;48.316;15.174;2022-10-15T04:03:37;20.80;;;7.70;;
4553;SDS011;2289;48.316;15.174;2022-10-15T04:06:06;9.07;;;7.17;;
4553;SDS011;2289;48.316;15.174;2022-10-15T04:08:34;10.33;;;7.67;;
4553;SDS011;2289;48.316;15.174;2022-10-15T04:11:06;13.23;;;8.00;;
4553;SDS011;2289;48.316;15.174;2022-10-15T04:13:38;8.60;;;6.87;;
4553;SDS011;2289;48.316;15.174;2022-10-15T04:16:08;11.33;;;7.40;;
4553;SDS011;2289;48.316;15.174;2022-10-15T04:18:36;12.30;;;7.80;;
4553;SDS011;2289;48.316;15.174;2022-10-15T04:21:06;10.27;;;7.27;;
4553;SDS011;2289;48.316;15.174;2022-10-15T04:23:35;9.67;;;7.27;;
4553;SDS011;2289;48.316;15.174;2022-10-15T04:26:06;10.40;;;7.83;;
4553;SDS011;2289;48.316;15.174;2022-10-15T04:28:35;10.40;;;7.50;;
4553;SDS011;2289;48.316;15.174;2022-10-15T04:31:06;14.23;;;8.17;;
4553;SDS011;2289;48.316;15.174;2022-10-15T04:33:36;11.57;;;8.90;;
4553;SDS011;2289;48.316;15.174;2022-10-15T04:36:05;9.33;;;7.80;;
4553;SDS011;2289;48.316;15.174;2022-10-15T04:38:36;15.23;;;8.57;;
4553;SDS011;2289;48.316;15.174;2022-10-15T04:41:13;12.63;;;8.17;;
4553;SDS011;2289;48.316;15.174;2022-10-15T04:43:41;12.43;;;7.80;;
4553;SDS011;2289;48.316;15.174;2022-10-15T04:46:11;10.13;;;7.60;;
4553;SDS011;2289;48.316;15.174;2022-10-15T04:48:39;10.67;;;7.53;;
4553;SDS011;2289;48.316;15.174;2022-10-15T04:51:09;12.27;;;8.30;;
4553;SDS011;2289;48.316;15.174;2022-10-15T04:53:41;9.97;;;7.73;;
4553;SDS011;2289;48.316;15.174;2022-10-15T04:56:10;13.67;;;8.23;;
4553;SDS011;2289;48.316;15.174;2022-10-15T04:58:43;16.50;;;9.37;;
4553;SDS011;2289;48.316;15.174;2022-10-15T05:01:13;22.13;;;9.63;;
4553;SDS011;2289;48.316;15.174;2022-10-15T05:03:46;10.67;;;8.17;;
4553;SDS011;2289;48.316;15.174;2022-10-15T05:06:17;17.33;;;8.67;;
4553;SDS011;2289;48.316;15.174;2022-10-15T05:08:47;12.07;;;8.90;;
4553;SDS011;2289;48.316;15.174;2022-10-15T05:11:17;15.70;;;9.60;;
4553;SDS011;2289;48.316;15.174;2022-10-15T05:13:49;11.60;;;9.33;;
4553;SDS011;2289;48.316;15.174;2022-10-15T05:16:21;11.30;;;8.83;;
4553;SDS011;2289;48.316;15.174;2022-10-15T05:18:54;16.43;;;11.13;;
4553;SDS011;2289;48.316;15.174;2022-10-15T05:21:25;16.03;;;10.10;;
4553;SDS011;2289;48.316;15.174;2022-10-15T05:23:55;14.40;;;9.67;;
4553;SDS011;2289;48.316;15.174;2022-10-15T05:26:27;12.90;;;9.27;;
4553;SDS011;2289;48.316;15.174;2022-10-15T05:28:59;14.90;;;10.53;;
4553;SDS011;2289;48.316;15.174;2022-10-15T05:31:30;15.90;;;9.97;;
4553;SDS011;2289;48.316;15.174;2022-10-15T05:34:04;14.53;;;10.10;;
4553;SDS011;2289;48.316;15.174;2022-10-15T05:36:35;12.73;;;9.63;;
4553;SDS011;2289;48.316;15.174;2022-10-15T05:39:04;15.47;;;9.93;;
4553;SDS011;2289;48.316;15.174;2022-10-15T05:41:36;17.97;;;14.00;;
4553;SDS011;2289;48.316;15.174;2022-10-15T05:44:11;15.60;;;10.13;;
4553;SDS011;2289;48.316;15.174;2022-10-15T05:46:39;15.20;;;10.83;;
4553;SDS011;2289;48.316;15.174;2022-10-15T05:49:08;21.57;;;14.07;;
4553;SDS011;2289;48.316;15.174;2022-10-15T05:51:36;16.70;;;11.03;;
4553;SDS011;2289;48.316;15.174;2022-10-15T05:54:06;15.53;;;11.63;;
4553;SDS011;2289;48.316;15.174;2022-10-15T05:56:35;16.70;;;11.80;;
4553;SDS011;2289;48.316;15.174;2022-10-15T05:59:04;27.77;;;12.50;;
4553;SDS011;2289;48.316;15.174;2022-10-15T06:01:34;18.07;;;11.47;;
4553;SDS011;2289;48.316;15.174;2022-10-15T06:04:03;16.00;;;11.97;;
4553;SDS011;2289;48.316;15.174;2022-10-15T06:06:34;15.60;;;11.30;;
4553;SDS011;2289;48.316;15.174;2022-10-15T06:09:06;18.47;;;12.13;;
4553;SDS011;2289;48.316;15.174;2022-10-15T06:11:41;18.87;;;9.50;;
4553;SDS011;2289;48.316;15.174;2022-10-15T06:14:10;17.10;;;11.33;;
4553;SDS011;2289;48.316;15.174;2022-10-15T06:16:40;21.60;;;10.83;;
4553;SDS011;2289;48.316;15.174;2022-10-15T06:19:09;16.03;;;10.90;;
4553;SDS011;2289;48.316;15.174;2022-10-15T06:21:37;17.30;;;11.30;;
4553;SDS011;2289;48.316;15.174;2022-10-15T06:24:06;17.07;;;11.03;;
4553;SDS011;2289;48.316;15.174;2022-10-15T06:26:36;15.37;;;11.70;;
4553;SDS011;2289;48.316;15.174;2022-10-15T06:29:05;21.63;;;13.47;;
4553;SDS011;2289;48.316;15.174;2022-10-15T06:31:34;15.87;;;10.80;;
4553;SDS011;2289;48.316;15.174;2022-10-15T06:34:05;14.77;;;10.33;;
4553;SDS011;2289;48.316;15.174;2022-10-15T06:36:35;20.60;;;12.00;;
4553;SDS011;2289;48.316;15.174;2022-10-15T06:39:04;16.30;;;11.33;;
4553;SDS011;2289;48.316;15.174;2022-10-15T06:41:33;13.60;;;10.70;;
4553;SDS011;2289;48.316;15.174;2022-10-15T06:44:03;14.47;;;10.33;;
4553;SDS011;2289;48.316;15.174;2022-10-15T06:46:31;20.50;;;11.03;;
4553;SDS011;2289;48.316;15.174;2022-10-15T06:49:00;16.27;;;10.87;;
4553;SDS011;2289;48.316;15.174;2022-10-15T06:51:31;13.27;;;9.97;;
4553;SDS011;2289;48.316;15.174;2022-10-15T06:54:04;16.10;;;12.23;;
4553;SDS011;2289;48.316;15.174;2022-10-15T06:56:33;17.57;;;10.50;;
4553;SDS011;2289;48.316;15.174;2022-10-15T06:59:01;17.40;;;11.60;;
4553;SDS011;2289;48.316;15.174;2022-10-15T07:01:32;20.70;;;12.03;;
4553;SDS011;2289;48.316;15.174;2022-10-15T07:04:05;13.90;;;11.00;;
4553;SDS011;2289;48.316;15.174;2022-10-15T07:06:38;14.13;;;11.50;;
4553;SDS011;2289;48.316;15.174;2022-10-15T07:09:10;16.00;;;11.97;;
4553;SDS011;2289;48.316;15.174;2022-10-15T07:11:41;16.97;;;11.27;;
4553;SDS011;2289;48.316;15.174;2022-10-15T07:14:11;15.53;;;11.03;;
4553;SDS011;2289;48.316;15.174;2022-10-15T07:16:39;14.53;;;10.37;;
4553;SDS011;2289;48.316;15.174;2022-10-15T07:19:10;14.23;;;11.13;;
4553;SDS011;2289;48.316;15.174;2022-10-15T07:21:43;16.70;;;12.13;;
4553;SDS011;2289;48.316;15.174;2022-10-15T07:24:11;18.33;;;11.20;;
4553;SDS011;2289;48.316;15.174;2022-10-15T07:26:46;15.03;;;11.67;;
4553;SDS011;2289;48.316;15.174;2022-10-15T07:29:16;18.70;;;13.33;;
4553;SDS011;2289;48.316;15.174;2022-10-15T07:31:46;13.70;;;10.57;;
4553;SDS011;2289;48.316;15.174;2022-10-15T07:34:15;18.73;;;13.30;;
4553;SDS011;2289;48.316;15.174;2022-10-15T07:36:46;17.97;;;13.30;;
4553;SDS011;2289;48.316;15.174;2022-10-15T07:39:16;17.17;;;13.40;;
4553;SDS011;2289;48.316;15.174;2022-10-15T07:41:52;20.53;;;13.57;;
4553;SDS011;2289;48.316;15.174;2022-10-15T07:44:23;16.43;;;11.93;;
4553;SDS011;2289;48.316;15.174;2022-10-15T07:46:54;14.77;;;11.57;;
4553;SDS011;2289;48.316;15.174;2022-10-15T07:49:24;19.47;;;13.40;;
4553;SDS011;2289;48.316;15.174;2022-10-15T07:51:55;27.37;;;15.23;;
4553;SDS011;2289;48.316;15.174;2022-10-15T07:54:24;19.63;;;14.30;;
4553;SDS011;2289;48.316;15.174;2022-10-15T07:56:52;20.30;;;14.93;;
4553;SDS011;2289;48.316;15.174;2022-10-15T07:59:21;21.67;;;15.07;;
4553;SDS011;2289;48.316;15.174;2022-10-15T08:01:52;24.80;;;15.30;;
4553;SDS011;2289;48.316;15.174;2022-10-15T08:04:21;23.80;;;15.80;;
4553;SDS011;2289;48.316;15.174;2022-10-15T08:06:51;20.03;;;17.40;;
4553;SDS011;2289;48.316;15.174;2022-10-15T08:09:21;21.40;;;18.17;;
4553;SDS011;2289;48.316;15.174;2022-10-15T08:11:50;23.90;;;16.40;;
4553;SDS011;2289;48.316;15.174;2022-10-15T08:14:22;22.00;;;16.40;;
4553;SDS011;2289;48.316;15.174;2022-10-15T08:16:53;22.87;;;16.37;;
4553;SDS011;2289;48.316;15.174;2022-10-15T08:19:24;22.53;;;17.50;;
4553;SDS011;2289;48.316;15.174;2022-10-15T08:21:59;22.40;;;16.77;;
4553;SDS011;2289;48.316;15.174;2022-10-15T08:24:32;25.27;;;17.53;;
4553;SDS011;2289;48.316;15.174;2022-10-15T08:27:05;24.57;;;17.10;;
4553;SDS011;2289;48.316;15.174;2022-10-15T08:29:37;24.27;;;16.80;;
4553;SDS011;2289;48.316;15.174;2022-10-15T08:32:09;26.33;;;19.50;;
4553;SDS011;2289;48.316;15.174;2022-10-15T08:34:45;25.83;;;17.33;;
4553;SDS011;2289;48.316;15.174;2022-10-15T08:37:20;33.53;;;19.63;;
4553;SDS011;2289;48.316;15.174;2022-10-15T08:39:55;26.47;;;18.20;;
4553;SDS011;2289;48.316;15.174;2022-10-15T08:42:27;22.57;;;17.17;;
4553;SDS011;2289;48.316;15.174;2022-10-15T08:45:02;24.73;;;17.07;;
4553;SDS011;2289;48.316;15.174;2022-10-15T08:47:35;24.67;;;19.43;;
4553;SDS011;2289;48.316;15.174;2022-10-15T08:50:15;26.33;;;17.73;;
4553;SDS011;2289;48.316;15.174;2022-10-15T08:52:49;28.53;;;19.40;;
4553;SDS011;2289;48.316;15.174;2022-10-15T08:55:22;34.67;;;19.17;;
4553;SDS011;2289;48.316;15.174;2022-10-15T08:57:57;28.30;;;18.57;;
4553;SDS011;2289;48.316;15.174;2022-10-15T09:00:30;23.50;;;17.23;;
4553;SDS011;2289;48.316;15.174;2022-10-15T09:03:20;22.87;;;17.33;;
4553;SDS011;2289;48.316;15.174;2022-10-15T09:06:00;24.00;;;16.87;;
4553;SDS011;2289;48.316;15.174;2022-10-15T09:08:39;21.87;;;17.60;;
4553;SDS011;2289;48.316;15.174;2022-10-15T09:11:21;24.07;;;16.50;;
4553;SDS011;2289;48.316;15.174;2022-10-15T09:13:59;24.93;;;17.97;;
4553;SDS011;2289;48.316;15.174;2022-10-15T09:16:35;29.27;;;20.60;;
4553;SDS011;2289;48.316;15.174;2022-10-15T09:19:11;29.70;;;17.63;;
4553;SDS011;2289;48.316;15.174;2022-10-15T09:21:44;23.03;;;16.60;;
4553;SDS011;2289;48.316;15.174;2022-10-15T09:24:20;26.77;;;18.80;;
4553;SDS011;2289;48.316;15.174;2022-10-15T09:27:01;34.47;;;22.23;;
4553;SDS011;2289;48.316;15.174;2022-10-15T09:29:38;27.60;;;20.03;;
4553;SDS011;2289;48.316;15.174;2022-10-15T09:32:15;26.43;;;20.17;;
4553;SDS011;2289;48.316;15.174;2022-10-15T09:34:54;26.90;;;19.53;;
4553;SDS011;2289;48.316;15.174;2022-10-15T09:37:30;30.00;;;21.70;;
4553;SDS011;2289;48.316;15.174;2022-10-15T09:40:19;26.80;;;21.43;;
4553;SDS011;2289;48.316;15.174;2022-10-15T09:42:58;30.47;;;21.97;;
4553;SDS011;2289;48.316;15.174;2022-10-15T09:45:33;27.20;;;19.30;;
4553;SDS011;2289;48.316;15.174;2022-10-15T09:48:11;30.03;;;20.47;;
4553;SDS011;2289;48.316;15.174;2022-10-15T09:50:48;29.03;;;18.90;;
4553;SDS011;2289;48.316;15.174;2022-10-15T09:53:25;23.90;;;17.80;;
4553;SDS011;2289;48.316;15.174;2022-10-15T09:56:07;29.70;;;20.77;;
4553;SDS011;2289;48.316;15.174;2022-10-15T09:58:41;26.03;;;18.63;;
4553;SDS011;2289;48.316;15.174;2022-10-15T10:01:17;23.23;;;18.37;;
4553;SDS011;2289;48.316;15.174;2022-10-15T10:03:50;26.80;;;19.53;;
4553;SDS011;2289;48.316;15.174;2022-10-15T10:06:20;24.33;;;18.17;;
4553;SDS011;2289;48.316;15.174;2022-10-15T10:08:51;32.83;;;19.00;;
4553;SDS011;2289;48.316;15.174;2022-10-15T10:11:24;24.90;;;17.40;;
4553;SDS011;2289;48.316;15.174;2022-10-15T10:13:57;28.20;;;19.10;;
4553;SDS011;2289;48.316;15.174;2022-10-15T10:16:32;21.40;;;18.03;;
4553;SDS011;2289;48.316;15.174;2022-10-15T10:19:10;30.47;;;18.83;;
4553;SDS011;2289;48.316;15.174;2022-10-15T10:21:46;22.37;;;17.53;;
4553;SDS011;2289;48.316;15.174;2022-10-15T10:24:23;25.90;;;19.83;;
4553;SDS011;2289;48.316;15.174;2022-10-15T10:27:00;23.67;;;19.73;;
4553;SDS011;2289;48.316;15.174;2022-10-15T10:29:35;23.50;;;18.20;;
4553;SDS011;2289;48.316;15.174;2022-10-15T10:32:11;23.33;;;18.10;;
4553;SDS011;2289;48.316;15.174;2022-10-15T10:34:48;27.70;;;18.80;;
4553;SDS011;2289;48.316;15.174;2022-10-15T10:37:19;22.07;;;18.30;;
4553;SDS011;2289;48.316;15.174;2022-10-15T10:39:53;19.80;;;15.93;;
4553;SDS011;2289;48.316;15.174;2022-10-15T10:42:26;28.70;;;19.50;;
4553;SDS011;2289;48.316;15.174;2022-10-15T10:45:14;18.20;;;14.63;;
4553;SDS011;2289;48.316;15.174;2022-10-15T10:47:46;25.10;;;16.93;;
4553;SDS011;2289;48.316;15.174;2022-10-15T10:50:28;21.27;;;16.63;;
4553;SDS011;2289;48.316;15.174;2022-10-15T10:53:10;20.70;;;14.17;;
4553;SDS011;2289;48.316;15.174;2022-10-15T10:55:50;16.80;;;13.33;;
4553;SDS011;2289;48.316;15.174;2022-10-15T10:58:22;17.30;;;12.77;;
4553;SDS011;2289;48.316;15.174;2022-10-15T11:00:55;15.00;;;12.13;;
4553;SDS011;2289;48.316;15.174;2022-10-15T11:03:30;17.60;;;13.20;;
4553;SDS011;2289;48.316;15.174;2022-10-15T11:06:18;14.70;;;10.20;;
4553;SDS011;2289;48.316;15.174;2022-10-15T11:08:56;6.27;;;4.43;;
4553;SDS011;2289;48.316;15.174;2022-10-15T11:11:36;5.00;;;3.80;;
4553;SDS011;2289;48.316;15.174;2022-10-15T11:14:14;5.23;;;3.53;;
4553;SDS011;2289;48.316;15.174;2022-10-15T11:16:52;2.27;;;2.07;;
4553;SDS011;2289;48.316;15.174;2022-10-15T11:19:29;2.03;;;1.83;;
4553;SDS011;2289;48.316;15.174;2022-10-15T11:22:40;2.23;;;2.03;;
4553;SDS011;2289;48.316;15.174;2022-10-15T11:25:19;1.63;;;1.53;;
4553;SDS011;2289;48.316;15.174;2022-10-15T11:27:59;2.50;;;1.30;;
4553;SDS011;2289;48.316;15.174;2022-10-15T11:30:38;1.00;;;0.90;;
4553;SDS011;2289;48.316;15.174;2022-10-15T11:33:21;1.13;;;1.03;;
4553;SDS011;2289;48.316;15.174;2022-10-15T11:39:26;1.33;;;0.80;;
4553;SDS011;2289;48.316;15.174;2022-10-15T11:42:05;0.90;;;0.90;;
4553;SDS011;2289;48.316;15.174;2022-10-15T11:44:45;1.00;;;0.80;;
4553;SDS011;2289;48.316;15.174;2022-10-15T11:47:26;1.10;;;1.00;;
4553;SDS011;2289;48.316;15.174;2022-10-15T11:50:07;0.80;;;0.80;;
4553;SDS011;2289;48.316;15.174;2022-10-15T11:52:48;3.13;;;0.80;;
4553;SDS011;2289;48.316;15.174;2022-10-15T11:55:27;0.90;;;0.83;;
4553;SDS011;2289;48.316;15.174;2022-10-15T11:58:04;2.60;;;1.53;;
4553;SDS011;2289;48.316;15.174;2022-10-15T12:00:39;0.97;;;0.60;;
4553;SDS011;2289;48.316;15.174;2022-10-15T12:03:12;1.03;;;0.80;;
4553;SDS011;2289;48.316;15.174;2022-10-15T12:05:47;3.50;;;0.70;;
4553;SDS011;2289;48.316;15.174;2022-10-15T12:08:19;0.77;;;0.70;;
4553;SDS011;2289;48.316;15.174;2022-10-15T12:10:55;0.60;;;0.57;;
4553;SDS011;2289;48.316;15.174;2022-10-15T12:13:33;0.87;;;0.73;;
4553;SDS011;2289;48.316;15.174;2022-10-15T12:16:10;1.30;;;1.23;;
4553;SDS011;2289;48.316;15.174;2022-10-15T12:18:48;1.73;;;0.90;;
4553;SDS011;2289;48.316;15.174;2022-10-15T12:21:31;0.70;;;0.67;;
4553;SDS011;2289;48.316;15.174;2022-10-15T12:24:04;0.70;;;0.70;;
4553;SDS011;2289;48.316;15.174;2022-10-15T12:26:37;0.73;;;0.70;;
4553;SDS011;2289;48.316;15.174;2022-10-15T12:29:18;1.03;;;0.67;;
4553;SDS011;2289;48.316;15.174;2022-10-15T12:31:50;0.60;;;0.60;;
4553;SDS011;2289;48.316;15.174;2022-10-15T12:34:29;2.00;;;0.67;;
4553;SDS011;2289;48.316;15.174;2022-10-15T12:37:05;0.93;;;0.80;;
4553;SDS011;2289;48.316;15.174;2022-10-15T12:39:42;0.70;;;0.60;;
4553;SDS011;2289;48.316;15.174;2022-10-15T12:42:19;4.40;;;0.97;;
4553;SDS011;2289;48.316;15.174;2022-10-15T12:44:51;0.70;;;0.60;;
4553;SDS011;2289;48.316;15.174;2022-10-15T12:50:20;0.60;;;0.60;;
4553;SDS011;2289;48.316;15.174;2022-10-15T12:52:55;1.07;;;0.97;;
4553;SDS011;2289;48.316;15.174;2022-10-15T12:55:26;1.10;;;0.70;;
4553;SDS011;2289;48.316;15.174;2022-10-15T12:57:58;0.80;;;0.70;;
4553;SDS011;2289;48.316;15.174;2022-10-15T13:00:36;1.13;;;0.70;;
4553;SDS011;2289;48.316;15.174;2022-10-15T13:03:09;0.70;;;0.70;;
4553;SDS011;2289;48.316;15.174;2022-10-15T13:05:52;1.93;;;0.80;;
4553;SDS011;2289;48.316;15.174;2022-10-15T13:08:24;3.73;;;0.70;;
4553;SDS011;2289;48.316;15.174;2022-10-15T13:10:57;0.87;;;0.87;;
4553;SDS011;2289;48.316;15.174;2022-10-15T13:13:30;0.70;;;0.70;;
4553;SDS011;2289;48.316;15.174;2022-10-15T13:16:07;1.30;;;0.60;;
4553;SDS011;2289;48.316;15.174;2022-10-15T13:18:37;0.70;;;0.60;;
4553;SDS011;2289;48.316;15.174;2022-10-15T13:21:08;2.53;;;0.87;;
4553;SDS011;2289;48.316;15.174;2022-10-15T13:23:44;1.90;;;0.80;;
4553;SDS011;2289;48.316;15.174;2022-10-15T13:26:19;0.70;;;0.60;;
4553;SDS011;2289;48.316;15.174;2022-10-15T13:28:49;0.80;;;0.70;;
4553;SDS011;2289;48.316;15.174;2022-10-15T13:31:20;0.60;;;0.60;;
4553;SDS011;2289;48.316;15.174;2022-10-15T13:33:57;0.90;;;0.90;;
4553;SDS011;2289;48.316;15.174;2022-10-15T13:36:31;0.70;;;0.70;;
4553;SDS011;2289;48.316;15.174;2022-10-15T13:39:05;0.80;;;0.70;;
4553;SDS011;2289;48.316;15.174;2022-10-15T13:41:36;0.83;;;0.67;;
4553;SDS011;2289;48.316;15.174;2022-10-15T13:44:17;1.23;;;0.80;;
4553;SDS011;2289;48.316;15.174;2022-10-15T13:46:48;0.90;;;0.80;;
4553;SDS011;2289;48.316;15.174;2022-10-15T13:49:17;2.50;;;0.67;;
4553;SDS011;2289;48.316;15.174;2022-10-15T13:51:49;1.00;;;0.80;;
4553;SDS011;2289;48.316;15.174;2022-10-15T13:54:23;1.97;;;0.67;;
4553;SDS011;2289;48.316;15.174;2022-10-15T13:56:56;7.03;;;1.83;;
4553;SDS011;2289;48.316;15.174;2022-10-15T13:59:26;0.70;;;0.70;;
4553;SDS011;2289;48.316;15.174;2022-10-15T14:01:57;2.73;;;0.70;;
4553;SDS011;2289;48.316;15.174;2022-10-15T14:04:28;2.93;;;1.10;;
4553;SDS011;2289;48.316;15.174;2022-10-15T14:07:01;0.60;;;0.60;;
4553;SDS011;2289;48.316;15.174;2022-10-15T14:09:34;0.80;;;0.70;;
4553;SDS011;2289;48.316;15.174;2022-10-15T14:12:06;1.00;;;0.73;;
4553;SDS011;2289;48.316;15.174;2022-10-15T14:14:40;1.00;;;0.90;;
4553;SDS011;2289;48.316;15.174;2022-10-15T14:17:19;1.23;;;0.70;;
4553;SDS011;2289;48.316;15.174;2022-10-15T14:19:51;3.83;;;0.93;;
4553;SDS011;2289;48.316;15.174;2022-10-15T14:22:43;2.30;;;0.70;;
4553;SDS011;2289;48.316;15.174;2022-10-15T14:25:21;2.17;;;0.80;;
4553;SDS011;2289;48.316;15.174;2022-10-15T14:27:52;0.73;;;0.70;;
4553;SDS011;2289;48.316;15.174;2022-10-15T14:30:25;3.37;;;1.00;;
4553;SDS011;2289;48.316;15.174;2022-10-15T14:32:58;2.70;;;1.20;;
4553;SDS011;2289;48.316;15.174;2022-10-15T14:35:28;1.63;;;1.20;;
4553;SDS011;2289;48.316;15.174;2022-10-15T14:38:01;1.70;;;1.37;;
4553;SDS011;2289;48.316;15.174;2022-10-15T14:40:35;1.80;;;0.90;;
4553;SDS011;2289;48.316;15.174;2022-10-15T14:43:05;1.10;;;1.00;;
4553;SDS011;2289;48.316;15.174;2022-10-15T14:45:37;1.17;;;1.07;;
4553;SDS011;2289;48.316;15.174;2022-10-15T14:48:13;1.47;;;1.10;;
4553;SDS011;2289;48.316;15.174;2022-10-15T14:50:46;0.90;;;0.90;;
4553;SDS011;2289;48.316;15.174;2022-10-15T14:53:18;1.63;;;1.43;;
4553;SDS011;2289;48.316;15.174;2022-10-15T14:55:50;3.67;;;1.13;;
4553;SDS011;2289;48.316;15.174;2022-10-15T14:58:23;2.57;;;1.27;;
4553;SDS011;2289;48.316;15.174;2022-10-15T15:00:57;1.47;;;1.13;;
4553;SDS011;2289;48.316;15.174;2022-10-15T15:03:37;2.20;;;1.40;;
4553;SDS011;2289;48.316;15.174;2022-10-15T15:06:09;2.10;;;1.33;;
4553;SDS011;2289;48.316;15.174;2022-10-15T15:08:38;1.20;;;1.10;;
4553;SDS011;2289;48.316;15.174;2022-10-15T15:11:12;1.23;;;1.00;;
4553;SDS011;2289;48.316;15.174;2022-10-15T15:13:44;1.50;;;1.40;;
4553;SDS011;2289;48.316;15.174;2022-10-15T15:16:15;1.63;;;1.03;;
4553;SDS011;2289;48.316;15.174;2022-10-15T15:18:46;5.50;;;1.83;;
4553;SDS011;2289;48.316;15.174;2022-10-15T15:21:18;1.83;;;0.80;;
4553;SDS011;2289;48.316;15.174;2022-10-15T15:23:49;0.97;;;0.97;;
4553;SDS011;2289;48.316;15.174;2022-10-15T15:26:21;1.17;;;0.90;;
4553;SDS011;2289;48.316;15.174;2022-10-15T15:28:52;0.90;;;0.90;;
4553;SDS011;2289;48.316;15.174;2022-10-15T15:31:22;0.90;;;0.90;;
4553;SDS011;2289;48.316;15.174;2022-10-15T15:33:53;1.10;;;1.00;;
4553;SDS011;2289;48.316;15.174;2022-10-15T15:36:25;3.67;;;1.00;;
4553;SDS011;2289;48.316;15.174;2022-10-15T15:38:55;1.37;;;0.80;;
4553;SDS011;2289;48.316;15.174;2022-10-15T15:41:29;1.10;;;1.00;;
4553;SDS011;2289;48.316;15.174;2022-10-15T15:44:01;1.00;;;1.00;;